createdAt,value
2018-09-28T00:01:46.733Z,12.30
2018-09-28T00:04:17.312Z,12.30
2018-09-28T00:06:47.860Z,12.30
2018-09-28T00:09:18.259Z,12.30
2018-09-28T00:11:48.827Z,12.30
2018-09-28T00:14:19.450Z,12.30
2018-09-28T00:16:49.984Z,12.30
2018-09-28T00:19:20.627Z,12.20
2018-09-28T00:21:50.998Z,12.20
2018-09-28T00:24:21.188Z,12.10
2018-09-28T00:26:51.547Z,12.10
2018-09-28T00:29:21.871Z,12.10
2018-09-28T00:31:52.257Z,12.10
2018-09-28T00:34:29.151Z,12.10
2018-09-28T00:36:59.699Z,12.10
2018-09-28T00:39:30.039Z,12.00
2018-09-28T00:42:00.422Z,12.10
2018-09-28T00:44:30.948Z,12.00
2018-09-28T00:47:01.381Z,12.00
2018-09-28T00:49:31.877Z,12.00
2018-09-28T00:52:02.304Z,12.00
2018-09-28T00:54:32.734Z,12.00
2018-09-28T00:57:03.458Z,11.90
2018-09-28T00:59:34.159Z,11.90
2018-09-28T01:02:04.529Z,11.90
2018-09-28T01:04:35.022Z,11.80
2018-09-28T01:07:05.251Z,11.80
2018-09-28T01:09:35.727Z,11.70
2018-09-28T01:12:06.109Z,11.70
2018-09-28T01:14:36.742Z,11.70
2018-09-28T01:17:07.058Z,11.70
2018-09-28T01:19:37.534Z,11.70
2018-09-28T01:22:07.897Z,11.70
2018-09-28T01:24:38.372Z,11.70
2018-09-28T01:27:09.049Z,11.60
2018-09-28T01:29:39.508Z,11.60
2018-09-28T01:32:09.919Z,11.60
2018-09-28T01:34:40.385Z,11.60
2018-09-28T01:37:10.779Z,11.70
2018-09-28T01:39:41.411Z,11.70
2018-09-28T01:42:11.911Z,11.60
2018-09-28T01:44:42.502Z,11.50
2018-09-28T01:47:12.828Z,11.50
2018-09-28T01:49:43.380Z,11.60
2018-09-28T01:52:13.654Z,11.60
2018-09-28T01:54:50.535Z,11.50
2018-09-28T01:57:20.980Z,11.50
2018-09-28T01:59:51.516Z,11.50
2018-09-28T02:02:21.747Z,11.30
2018-09-28T02:04:52.262Z,11.30
2018-09-28T02:07:22.744Z,11.20
2018-09-28T02:09:53.146Z,11.20
2018-09-28T02:12:23.745Z,11.10
2018-09-28T02:14:54.286Z,11.10
2018-09-28T02:17:24.790Z,11.10
2018-09-28T02:19:55.435Z,11.00
2018-09-28T02:22:25.687Z,11.00
2018-09-28T02:24:56.296Z,10.90
2018-09-28T02:27:26.859Z,10.90
2018-09-28T02:29:57.364Z,10.80
2018-09-28T02:32:28.031Z,10.80
2018-09-28T02:34:58.329Z,10.80
2018-09-28T02:37:28.681Z,10.70
2018-09-28T02:39:59.176Z,10.70
2018-09-28T02:42:29.484Z,10.70
2018-09-28T02:45:00.024Z,10.70
2018-09-28T02:47:30.497Z,10.60
2018-09-28T02:50:00.912Z,10.60
2018-09-28T02:52:31.454Z,10.60
2018-09-28T02:55:01.903Z,10.60
2018-09-28T02:57:32.259Z,10.50
2018-09-28T03:00:02.829Z,10.50
2018-09-28T03:02:33.578Z,10.50
2018-09-28T03:05:04.100Z,10.50
2018-09-28T03:07:34.635Z,10.50
2018-09-28T03:10:05.212Z,10.40
2018-09-28T03:12:35.905Z,10.40
2018-09-28T03:15:06.276Z,10.30
2018-09-28T03:17:36.720Z,10.30
2018-09-28T03:20:07.457Z,10.20
2018-09-28T03:22:37.851Z,10.20
2018-09-28T03:25:08.493Z,10.20
2018-09-28T03:27:39.029Z,10.20
2018-09-28T03:30:09.686Z,10.20
2018-09-28T03:32:40.245Z,10.20
2018-09-28T03:35:10.685Z,10.20
2018-09-28T03:37:41.105Z,10.20
2018-09-28T03:40:11.740Z,10.10
2018-09-28T03:42:42.166Z,10.10
2018-09-28T03:45:12.729Z,10.10
2018-09-28T03:47:45.745Z,10.10
2018-09-28T03:50:16.391Z,10.20
2018-09-28T03:52:46.854Z,10.20
2018-09-28T03:55:17.504Z,10.20
2018-09-28T03:57:47.936Z,10.20
2018-09-28T04:00:18.489Z,10.10
2018-09-28T04:02:48.977Z,10.10
2018-09-28T04:05:19.522Z,10.10
2018-09-28T04:07:49.916Z,10.10
2018-09-28T04:10:20.476Z,10.10
2018-09-28T04:12:50.884Z,10.10
2018-09-28T04:15:21.147Z,10.10
2018-09-28T04:17:51.518Z,10.10
2018-09-28T04:20:22.093Z,10.20
2018-09-28T04:22:52.556Z,10.20
2018-09-28T04:25:23.111Z,10.30
2018-09-28T04:27:53.375Z,10.30
2018-09-28T04:30:23.900Z,10.30
2018-09-28T04:32:54.387Z,10.20
2018-09-28T04:35:24.772Z,10.20
2018-09-28T04:38:00.135Z,10.10
2018-09-28T04:40:30.634Z,10.10
2018-09-28T04:43:01.248Z,10.10
2018-09-28T04:45:31.693Z,10.00
2018-09-28T04:48:02.146Z,10.10
2018-09-28T04:50:32.726Z,10.10
2018-09-28T04:53:03.019Z,10.10
2018-09-28T04:55:33.559Z,10.10
2018-09-28T04:58:04.057Z,10.10
2018-09-28T05:00:34.514Z,10.10
2018-09-28T05:03:04.680Z,10.20
2018-09-28T05:05:35.092Z,10.20
2018-09-28T05:08:05.583Z,10.20
2018-09-28T05:10:36.235Z,10.30
2018-09-28T05:13:06.522Z,10.30
2018-09-28T05:15:36.980Z,10.30
2018-09-28T05:18:07.576Z,10.30
2018-09-28T05:20:38.057Z,10.30
2018-09-28T05:23:08.473Z,10.30
2018-09-28T05:25:39.023Z,10.30
2018-09-28T05:28:09.584Z,10.40
2018-09-28T05:30:44.973Z,10.40
2018-09-28T05:33:10.291Z,10.40
2018-09-28T05:35:40.889Z,10.40
2018-09-28T05:38:11.354Z,10.50
2018-09-28T05:40:41.982Z,10.50
2018-09-28T05:43:12.571Z,10.50
2018-09-28T05:45:42.842Z,10.60
2018-09-28T05:48:13.178Z,10.60
2018-09-28T05:50:43.673Z,10.70
2018-09-28T05:53:14.055Z,10.70
2018-09-28T05:55:44.631Z,10.60
2018-09-28T05:58:19.957Z,10.70
2018-09-28T06:00:55.392Z,10.70
2018-09-28T06:03:25.789Z,10.80
2018-09-28T06:06:00.565Z,10.80
2018-09-28T06:08:31.142Z,10.90
2018-09-28T06:11:01.756Z,10.90
2018-09-28T06:13:32.231Z,11.00
2018-09-28T06:16:02.797Z,11.10
2018-09-28T06:18:33.146Z,11.10
2018-09-28T06:21:03.529Z,11.20
2018-09-28T06:23:34.040Z,11.30
2018-09-28T06:26:04.547Z,11.40
2018-09-28T06:28:34.799Z,11.50
2018-09-28T06:31:05.221Z,11.50
2018-09-28T06:33:35.594Z,11.60
2018-09-28T06:36:06.162Z,11.60
2018-09-28T06:38:36.888Z,11.70
2018-09-28T06:41:07.382Z,11.70
2018-09-28T06:43:37.632Z,11.80
2018-09-28T06:46:07.760Z,11.80
2018-09-28T06:48:38.430Z,11.80
2018-09-28T06:51:08.837Z,11.80
2018-09-28T06:53:39.292Z,11.90
2018-09-28T06:56:09.671Z,12.00
2018-09-28T06:58:40.230Z,12.00
2018-09-28T07:01:10.710Z,12.20
2018-09-28T07:03:41.278Z,12.20
2018-09-28T07:06:11.875Z,12.40
2018-09-28T07:08:42.322Z,12.40
2018-09-28T07:11:12.745Z,12.40
2018-09-28T07:13:43.197Z,12.50
2018-09-28T07:16:14.438Z,12.50
2018-09-28T07:18:44.750Z,12.60
2018-09-28T07:21:15.288Z,12.60
2018-09-28T07:23:45.675Z,12.70
2018-09-28T07:26:16.233Z,12.70
2018-09-28T07:28:46.790Z,12.70
2018-09-28T07:31:17.030Z,12.80
2018-09-28T07:33:47.147Z,12.80
2018-09-28T07:36:17.635Z,12.90
2018-09-28T07:38:48.091Z,12.90
2018-09-28T07:41:18.535Z,13.00
2018-09-28T07:43:48.859Z,13.10
2018-09-28T07:46:19.303Z,13.20
2018-09-28T07:48:49.477Z,13.30
2018-09-28T07:51:19.856Z,13.40
2018-09-28T07:53:50.134Z,13.40
2018-09-28T07:56:20.443Z,13.50
2018-09-28T07:58:50.850Z,13.50
2018-09-28T08:01:21.229Z,13.60
2018-09-28T08:03:51.538Z,13.60
2018-09-28T08:06:21.997Z,13.70
2018-09-28T08:08:52.215Z,13.80
2018-09-28T08:11:22.541Z,13.90
2018-09-28T08:13:52.821Z,14.00
2018-09-28T08:16:23.169Z,14.10
2018-09-28T08:18:53.536Z,14.20
2018-09-28T08:21:24.077Z,14.30
2018-09-28T08:23:54.594Z,14.40
2018-09-28T08:26:24.884Z,14.50
2018-09-28T08:28:58.186Z,14.60
2018-09-28T08:31:28.540Z,14.70
2018-09-28T08:33:58.759Z,14.80
2018-09-28T08:36:29.276Z,15.00
2018-09-28T08:38:59.501Z,15.10
2018-09-28T08:41:30.111Z,15.30
2018-09-28T08:44:00.340Z,15.40
2018-09-28T08:46:33.808Z,15.50
2018-09-28T08:49:04.761Z,15.70
2018-09-28T08:51:35.069Z,15.80
2018-09-28T08:54:05.547Z,16.00
2018-09-28T08:56:35.927Z,16.10
2018-09-28T08:59:06.361Z,16.30
2018-09-28T09:01:36.653Z,16.50
2018-09-28T09:04:07.039Z,16.70
2018-09-28T09:06:37.503Z,16.90
2018-09-28T09:09:11.125Z,17.10
2018-09-28T09:11:41.376Z,17.30
2018-09-28T09:14:11.843Z,17.50
2018-09-28T09:16:42.353Z,17.60
2018-09-28T09:19:13.044Z,17.80
2018-09-28T09:21:43.600Z,18.00
2018-09-28T09:24:14.028Z,18.30
2018-09-28T09:26:44.369Z,18.50
2018-09-28T09:29:14.708Z,18.80
2018-09-28T09:31:44.979Z,19.00
2018-09-28T09:34:15.364Z,19.20
2018-09-28T09:36:45.852Z,19.50
2018-09-28T09:39:16.385Z,19.70
2018-09-28T09:41:46.791Z,19.90
2018-09-28T09:44:17.161Z,20.20
2018-09-28T09:46:47.535Z,20.40
2018-09-28T09:49:17.881Z,20.70
2018-09-28T09:51:48.315Z,20.90
2018-09-28T09:54:18.760Z,21.00
2018-09-28T09:56:49.331Z,21.30
2018-09-28T09:59:19.940Z,21.50
2018-09-28T10:01:55.388Z,21.70
2018-09-28T10:04:25.970Z,21.80
2018-09-28T10:06:56.347Z,21.90
2018-09-28T10:09:26.644Z,22.10
2018-09-28T10:11:57.090Z,22.30
2018-09-28T10:14:27.620Z,22.50
2018-09-28T10:16:58.442Z,22.80
2018-09-28T10:19:28.698Z,22.90
2018-09-28T10:21:59.069Z,23.20
2018-09-28T10:24:29.435Z,23.20
2018-09-28T10:27:00.075Z,23.60
2018-09-28T10:29:30.355Z,24.00
2018-09-28T10:32:00.688Z,24.20
2018-09-28T10:34:31.178Z,24.30
2018-09-28T10:37:01.671Z,24.70
2018-09-28T10:39:32.046Z,24.80
2018-09-28T10:42:02.365Z,25.10
2018-09-28T10:44:32.764Z,25.30
2018-09-28T10:47:03.265Z,25.60
2018-09-28T10:49:33.861Z,26.00
2018-09-28T10:52:04.497Z,26.30
2018-09-28T10:54:35.029Z,26.50
2018-09-28T10:57:05.293Z,26.70
2018-09-28T10:59:35.738Z,27.00
2018-09-28T11:02:06.206Z,26.80
2018-09-28T11:04:36.676Z,27.00
2018-09-28T11:07:07.075Z,27.40
2018-09-28T11:09:37.532Z,27.60
2018-09-28T11:12:08.332Z,28.10
2018-09-28T11:14:38.755Z,28.40
2018-09-28T11:17:09.106Z,28.50
2018-09-28T11:19:39.348Z,28.90
2018-09-28T11:22:09.863Z,29.20
2018-09-28T11:24:40.347Z,29.80
2018-09-28T11:27:10.692Z,30.10
2018-09-28T11:29:40.969Z,30.30
2018-09-28T11:32:11.332Z,30.30
2018-09-28T11:34:41.679Z,30.60
2018-09-28T11:37:12.217Z,31.20
2018-09-28T11:39:42.690Z,31.80
2018-09-28T11:42:12.995Z,33.50
2018-09-28T11:44:43.372Z,34.50
2018-09-28T11:47:13.746Z,35.60
2018-09-28T11:49:44.195Z,37.70
2018-09-28T11:52:14.638Z,39.90
2018-09-28T11:54:44.915Z,41.40
2018-09-28T11:57:15.503Z,42.80
2018-09-28T11:59:45.908Z,43.40
2018-09-28T12:02:16.401Z,43.60
2018-09-28T12:04:46.642Z,44.50
2018-09-28T12:07:17.128Z,45.00
2018-09-28T12:09:47.438Z,45.60
2018-09-28T12:12:17.866Z,46.10
2018-09-28T12:14:48.357Z,46.30
2018-09-28T12:17:19.060Z,46.40
2018-09-28T12:19:49.395Z,46.50
2018-09-28T12:22:19.786Z,46.50
2018-09-28T12:24:50.320Z,45.90
2018-09-28T12:27:20.748Z,46.40
2018-09-28T12:29:51.147Z,46.50
2018-09-28T12:32:21.495Z,46.50
2018-09-28T12:34:51.809Z,45.60
2018-09-28T12:37:22.911Z,45.80
2018-09-28T12:39:53.196Z,45.40
2018-09-28T12:42:23.810Z,45.60
2018-09-28T12:44:54.102Z,45.00
2018-09-28T12:47:24.363Z,44.70
2018-09-28T12:49:54.628Z,45.10
2018-09-28T12:52:25.040Z,44.90
2018-09-28T12:54:55.573Z,45.10
2018-09-28T12:57:26.128Z,44.50
2018-09-28T12:59:57.344Z,43.50
2018-09-28T13:02:28.101Z,41.90
2018-09-28T13:04:58.383Z,41.40
2018-09-28T13:07:29.030Z,41.10
2018-09-28T13:09:59.408Z,40.70
2018-09-28T13:12:30.019Z,40.60
2018-09-28T13:15:00.759Z,40.60
2018-09-28T13:17:31.150Z,41.40
2018-09-28T13:20:01.651Z,42.70
2018-09-28T13:22:32.118Z,43.90
2018-09-28T13:25:02.397Z,44.70
2018-09-28T13:27:32.852Z,45.50
2018-09-28T13:30:03.304Z,46.50
2018-09-28T13:32:33.754Z,46.90
2018-09-28T13:35:04.264Z,46.50
2018-09-28T13:37:34.626Z,47.20
2018-09-28T13:40:05.086Z,47.70
2018-09-28T13:42:35.554Z,47.30
2018-09-28T13:45:06.297Z,46.30
2018-09-28T13:47:36.604Z,45.90
2018-09-28T13:50:06.662Z,45.60
2018-09-28T13:52:37.121Z,46.00
2018-09-28T13:55:07.951Z,46.90
2018-09-28T13:57:38.452Z,47.00
2018-09-28T14:00:09.174Z,47.00
2018-09-28T14:02:39.702Z,46.90
2018-09-28T14:05:10.008Z,46.40
2018-09-28T14:07:40.381Z,46.60
2018-09-28T14:10:10.550Z,47.70
2018-09-28T14:12:40.960Z,48.40
2018-09-28T14:15:11.431Z,48.20
2018-09-28T14:17:41.872Z,47.50
2018-09-28T14:20:12.205Z,46.70
2018-09-28T14:22:42.715Z,45.60
2018-09-28T14:25:13.143Z,45.90
2018-09-28T14:27:43.703Z,46.40
2018-09-28T14:30:14.325Z,46.00
2018-09-28T14:32:44.794Z,45.20
2018-09-28T14:35:14.930Z,44.30
2018-09-28T14:37:45.355Z,42.80
2018-09-28T14:40:15.712Z,41.50
2018-09-28T14:42:46.186Z,41.40
2018-09-28T14:45:16.504Z,41.40
2018-09-28T14:47:46.872Z,40.90
2018-09-28T14:50:17.336Z,39.60
2018-09-28T14:52:47.737Z,38.20
2018-09-28T14:55:18.367Z,37.20
2018-09-28T14:57:48.902Z,37.20
2018-09-28T15:00:19.221Z,37.30
2018-09-28T15:02:49.530Z,37.90
2018-09-28T15:05:19.764Z,38.50
2018-09-28T15:07:54.030Z,38.50
2018-09-28T15:10:24.539Z,37.60
2018-09-28T15:12:55.004Z,37.40
2018-09-28T15:15:25.373Z,36.50
2018-09-28T15:17:55.711Z,36.10
2018-09-28T15:20:26.186Z,36.30
2018-09-28T15:22:56.660Z,36.40
2018-09-28T15:25:26.919Z,36.10
2018-09-28T15:27:57.360Z,35.70
2018-09-28T15:30:27.802Z,35.40
2018-09-28T15:32:58.151Z,34.90
2018-09-28T15:35:28.601Z,34.70
2018-09-28T15:37:59.069Z,33.70
2018-09-28T15:40:29.374Z,33.30
2018-09-28T15:42:59.731Z,33.00
2018-09-28T15:45:30.139Z,32.70
2018-09-28T15:48:00.732Z,32.50
2018-09-28T15:50:31.263Z,32.50
2018-09-28T15:53:01.678Z,31.80
2018-09-28T15:55:31.950Z,31.40
2018-09-28T15:58:02.556Z,31.00
2018-09-28T16:00:32.931Z,30.80
2018-09-28T16:03:03.360Z,30.40
2018-09-28T16:05:33.724Z,30.10
2018-09-28T16:08:04.738Z,29.60
2018-09-28T16:10:35.182Z,29.20
2018-09-28T16:13:05.716Z,28.70
2018-09-28T16:15:36.080Z,28.20
2018-09-28T16:18:06.797Z,27.80
2018-09-28T16:20:37.308Z,27.30
2018-09-28T16:23:07.631Z,26.70
2018-09-28T16:25:38.157Z,26.10
2018-09-28T16:28:08.643Z,25.70
2018-09-28T16:30:38.938Z,25.30
2018-09-28T16:33:09.402Z,24.90
2018-09-28T16:35:40.421Z,24.70
2018-09-28T16:38:10.931Z,24.30
2018-09-28T16:40:41.395Z,24.10
2018-09-28T16:43:11.841Z,23.80
2018-09-28T16:45:42.189Z,23.60
2018-09-28T16:48:12.618Z,23.40
2018-09-28T16:50:42.940Z,23.20
2018-09-28T16:53:13.524Z,23.00
2018-09-28T16:55:43.868Z,22.80
2018-09-28T16:58:14.953Z,22.70
2018-09-28T17:00:45.474Z,22.50
2018-09-28T17:03:15.889Z,22.40
2018-09-28T17:05:46.171Z,22.30
2018-09-28T17:08:17.168Z,22.20
2018-09-28T17:10:47.616Z,22.10
2018-09-28T17:13:18.121Z,21.80
2018-09-28T17:15:48.752Z,21.60
2018-09-28T17:18:19.103Z,21.50
2018-09-28T17:20:49.689Z,21.40
2018-09-28T17:23:20.189Z,21.20
2018-09-28T17:25:50.568Z,21.10
2018-09-28T17:28:20.850Z,20.90
2018-09-28T17:30:52.111Z,20.80
2018-09-28T17:33:22.446Z,20.80
2018-09-28T17:35:52.889Z,20.70
2018-09-28T17:38:24.822Z,20.60
2018-09-28T17:40:55.169Z,20.50
2018-09-28T17:43:25.776Z,20.40
2018-09-28T17:45:56.215Z,20.30
2018-09-28T17:48:27.578Z,20.20
2018-09-28T17:50:58.089Z,20.10
2018-09-28T17:53:28.479Z,20.00
2018-09-28T17:55:58.912Z,19.90
2018-09-28T17:58:29.794Z,19.90
2018-09-28T18:01:00.579Z,19.70
2018-09-28T18:03:31.136Z,19.60
2018-09-28T18:06:01.462Z,19.40
2018-09-28T18:08:31.819Z,19.30
2018-09-28T18:11:02.393Z,19.20
2018-09-28T18:13:32.808Z,19.20
2018-09-28T18:16:03.260Z,19.20
2018-09-28T18:18:33.941Z,19.20
2018-09-28T18:21:04.454Z,19.10
2018-09-28T18:23:34.911Z,19.10
2018-09-28T18:26:05.279Z,19.10
2018-09-28T18:28:36.150Z,19.00
2018-09-28T18:31:06.595Z,18.80
2018-09-28T18:33:37.312Z,18.80
2018-09-28T18:36:07.841Z,18.70
2018-09-28T18:38:38.137Z,18.70
2018-09-28T18:41:08.540Z,18.70
2018-09-28T18:43:39.471Z,18.60
2018-09-28T18:46:09.828Z,18.40
2018-09-28T18:48:40.345Z,18.30
2018-09-28T18:51:10.806Z,18.30
2018-09-28T18:53:41.032Z,18.20
2018-09-28T18:56:11.565Z,18.20
2018-09-28T18:58:42.027Z,18.10
2018-09-28T19:01:12.591Z,18.10
2018-09-28T19:03:43.292Z,18.00
2018-09-28T19:06:13.644Z,18.00
2018-09-28T19:08:44.029Z,17.90
2018-09-28T19:11:14.601Z,17.80
2018-09-28T19:13:45.472Z,17.80
2018-09-28T19:16:16.077Z,17.70
2018-09-28T19:18:46.828Z,17.70
2018-09-28T19:21:17.295Z,17.70
2018-09-28T19:23:47.913Z,17.70
2018-09-28T19:26:18.532Z,17.70
2018-09-28T19:28:48.874Z,17.70
2018-09-28T19:31:19.290Z,17.60
2018-09-28T19:33:49.701Z,17.60
2018-09-28T19:36:20.221Z,17.50
2018-09-28T19:38:50.571Z,17.40
2018-09-28T19:41:20.848Z,17.50
2018-09-28T19:43:51.787Z,17.40
2018-09-28T19:46:22.159Z,17.50
2018-09-28T19:48:52.992Z,17.50
2018-09-28T19:51:23.312Z,17.50
2018-09-28T19:53:53.804Z,17.60
2018-09-28T19:56:24.109Z,17.50
2018-09-28T19:58:54.817Z,17.50
2018-09-28T20:01:24.985Z,17.60
2018-09-28T20:03:55.354Z,17.70
2018-09-28T20:06:26.045Z,17.80
2018-09-28T20:08:56.510Z,17.90
2018-09-28T20:11:27.173Z,17.90
2018-09-28T20:13:57.443Z,17.90
2018-09-28T20:16:27.785Z,17.90
2018-09-28T20:18:58.292Z,17.90
2018-09-28T20:21:29.589Z,17.90
2018-09-28T20:24:00.156Z,17.80
2018-09-28T20:26:30.661Z,17.80
2018-09-28T20:29:01.262Z,17.80
2018-09-28T20:31:31.821Z,17.80
2018-09-28T20:34:04.150Z,17.80
2018-09-28T20:36:34.182Z,17.70
2018-09-28T20:39:04.891Z,17.70
2018-09-28T20:41:35.480Z,17.60
2018-09-28T20:44:06.075Z,17.60
2018-09-28T20:46:37.096Z,17.50
2018-09-28T20:49:08.035Z,17.50
2018-09-28T20:51:38.537Z,17.40
2018-09-28T20:54:09.141Z,17.30
2018-09-28T20:56:39.404Z,17.30
2018-09-28T20:59:09.823Z,17.20
2018-09-28T21:01:40.263Z,17.10
2018-09-28T21:04:10.724Z,17.00
2018-09-28T21:06:41.302Z,16.90
2018-09-28T21:09:12.336Z,16.90
2018-09-28T21:11:43.039Z,16.80
2018-09-28T21:14:13.457Z,16.80
2018-09-28T21:16:43.958Z,16.80
2018-09-28T21:19:14.413Z,16.70
2018-09-28T21:21:44.742Z,16.70
2018-09-28T21:24:15.366Z,16.70
2018-09-28T21:26:45.898Z,16.70
2018-09-28T21:29:16.097Z,16.60
2018-09-28T21:31:46.505Z,16.50
2018-09-28T21:34:17.141Z,16.50
2018-09-28T21:36:47.510Z,16.40
2018-09-28T21:39:18.126Z,16.40
2018-09-28T21:41:48.410Z,16.30
2018-09-28T21:44:18.880Z,16.30
2018-09-28T21:46:49.528Z,16.30
2018-09-28T21:49:20.107Z,16.30
2018-09-28T21:51:50.457Z,16.20
2018-09-28T21:54:20.933Z,16.10
2018-09-28T21:56:51.251Z,16.00
2018-09-28T21:59:21.663Z,16.00
2018-09-28T22:01:52.156Z,15.90
2018-09-28T22:04:23.230Z,15.90
2018-09-28T22:06:53.666Z,15.90
2018-09-28T22:09:24.084Z,15.90
2018-09-28T22:11:54.488Z,15.90
2018-09-28T22:14:24.835Z,15.90
2018-09-28T22:16:55.499Z,15.90
2018-09-28T22:19:26.242Z,15.80
2018-09-28T22:21:56.697Z,15.70
2018-09-28T22:24:27.052Z,15.70
2018-09-28T22:26:58.166Z,15.80
2018-09-28T22:29:28.551Z,15.70
2018-09-28T22:31:58.954Z,15.70
2018-09-28T22:34:29.274Z,15.60
2018-09-28T22:36:59.569Z,15.60
2018-09-28T22:39:29.913Z,15.60
2018-09-28T22:42:00.199Z,15.60
2018-09-28T22:44:30.552Z,15.50
2018-09-28T22:47:00.895Z,15.40
2018-09-28T22:49:31.289Z,15.30
2018-09-28T22:52:01.808Z,15.30
2018-09-28T22:54:32.772Z,15.30
2018-09-28T22:57:03.186Z,15.30
2018-09-28T22:59:33.771Z,15.30
2018-09-28T23:02:03.982Z,15.30
2018-09-28T23:04:34.271Z,15.30
2018-09-28T23:07:04.649Z,15.30
2018-09-28T23:09:35.135Z,15.40
2018-09-28T23:12:05.329Z,15.40
2018-09-28T23:14:35.800Z,15.50
2018-09-28T23:17:06.295Z,15.40
2018-09-28T23:19:36.919Z,15.50
2018-09-28T23:22:07.345Z,15.60
2018-09-28T23:24:38.202Z,15.60
2018-09-28T23:27:08.706Z,15.60
2018-09-28T23:29:39.155Z,15.60
2018-09-28T23:32:09.554Z,15.60
2018-09-28T23:34:40.072Z,15.70
2018-09-28T23:37:10.460Z,15.70
2018-09-28T23:39:40.891Z,15.70
2018-09-28T23:42:11.282Z,15.60
2018-09-28T23:44:41.703Z,15.60
2018-09-28T23:47:12.059Z,15.50
2018-09-28T23:49:42.494Z,15.40
2018-09-28T23:52:12.891Z,15.40
2018-09-28T23:54:43.198Z,15.40
2018-09-28T23:57:13.748Z,15.40
2018-09-28T23:59:44.197Z,15.40
